Terminal Aerodrome Forecast
Issued by NWS St Louis, MO

Home | Current Version | Previous Version | Text Only | Print | Product List | Glossary On
Versions: 1 2 3 4 5 6 7 8 9 10 11 12 13 14 15 16 17 18 19 20
000
FTUS43 KLSX 201448 AAB
TAFCOU
TAF AMD
KCOU 201448Z 2015/2112 18010KT P6SM VCSH BKN005
      TEMPO 2015/2016 SCT005 OVC100
     FM201600 17008KT P6SM BKN020
     FM201900 22011KT P6SM VCSH BKN050
     FM202300 25009KT P6SM BKN090=

USA.gov is the U.S. government's official web portal to all federal, state and local government web resources and services.